createdAt,value
2022-10-08T00:00:10.868Z,1009.77
2022-10-08T00:01:11.022Z,1009.76
2022-10-08T00:02:11.166Z,1009.79
2022-10-08T00:03:11.252Z,1009.71
2022-10-08T00:04:11.386Z,1009.76
2022-10-08T00:05:11.473Z,1009.69
2022-10-08T00:06:11.637Z,1009.69
2022-10-08T00:07:11.774Z,1009.69
2022-10-08T00:08:11.923Z,1009.71
2022-10-08T00:09:12.014Z,1009.65
2022-10-08T00:10:12.147Z,1009.69
2022-10-08T00:11:12.313Z,1009.69
2022-10-08T00:12:12.476Z,1009.68
2022-10-08T00:13:12.626Z,1009.68
2022-10-08T00:14:12.726Z,1009.67
2022-10-08T00:15:12.867Z,1009.69
2022-10-08T00:16:13.071Z,1009.66
2022-10-08T00:17:13.153Z,1009.70
2022-10-08T00:18:13.303Z,1009.71
2022-10-08T00:19:13.449Z,1009.72
2022-10-08T00:20:13.584Z,1009.66
2022-10-08T00:21:13.746Z,1009.71
2022-10-08T00:22:13.883Z,1009.69
2022-10-08T00:23:14.078Z,1009.77
2022-10-08T00:24:14.228Z,1009.73
2022-10-08T00:25:14.355Z,1009.66
2022-10-08T00:26:15.955Z,1009.76
2022-10-08T00:27:14.664Z,1009.74
2022-10-08T00:28:14.807Z,1009.71
2022-10-08T00:29:14.923Z,1009.75
2022-10-08T00:30:15.063Z,1009.70
2022-10-08T00:31:15.203Z,1009.62
2022-10-08T00:32:15.293Z,1009.74
2022-10-08T00:33:15.427Z,1009.73
2022-10-08T00:34:15.562Z,1009.72
2022-10-08T00:35:15.709Z,1009.72
2022-10-08T00:36:15.822Z,1009.70
2022-10-08T00:37:15.963Z,1009.70
2022-10-08T00:38:16.135Z,1009.67
2022-10-08T00:39:16.218Z,1009.71
2022-10-08T00:40:16.354Z,1009.69
2022-10-08T00:41:16.457Z,1009.69
2022-10-08T00:42:16.672Z,1009.66
2022-10-08T00:43:16.716Z,1009.69
2022-10-08T00:44:16.855Z,1009.66
2022-10-08T00:45:16.956Z,1009.68
2022-10-08T00:46:17.106Z,1009.67
2022-10-08T00:47:17.270Z,1009.62
2022-10-08T00:48:17.364Z,1009.59
2022-10-08T00:49:17.503Z,1009.61
2022-10-08T00:50:17.613Z,1009.57
2022-10-08T00:51:17.723Z,1009.57
2022-10-08T00:52:17.864Z,1009.58
2022-10-08T00:53:17.957Z,1009.58
2022-10-08T00:54:18.093Z,1009.57
2022-10-08T00:55:18.198Z,1009.53
2022-10-08T00:56:18.332Z,1009.55
2022-10-08T00:57:19.120Z,1009.52
2022-10-08T00:58:18.668Z,1009.51
2022-10-08T00:59:18.860Z,1009.51
2022-10-08T01:00:18.925Z,1009.45
2022-10-08T01:01:19.062Z,1009.45
2022-10-08T01:02:19.244Z,1009.43
2022-10-08T01:03:19.253Z,1009.50
2022-10-08T01:04:19.403Z,1009.49
2022-10-08T01:05:19.543Z,1009.49
2022-10-08T01:06:19.676Z,1009.49
2022-10-08T01:07:19.900Z,1009.43
2022-10-08T01:08:19.932Z,1009.37
2022-10-08T01:09:20.102Z,1009.46
2022-10-08T01:10:20.234Z,1009.39
2022-10-08T01:11:20.360Z,1009.39
2022-10-08T01:12:20.510Z,1009.37
2022-10-08T01:13:20.664Z,1009.36
2022-10-08T01:14:20.793Z,1009.39
2022-10-08T01:15:20.912Z,1009.38
2022-10-08T01:16:21.084Z,1009.33
2022-10-08T01:17:21.169Z,1009.37
2022-10-08T01:18:21.372Z,1009.32
2022-10-08T01:19:21.439Z,1009.35
2022-10-08T01:20:21.617Z,1009.28
2022-10-08T01:21:21.694Z,1009.38
2022-10-08T01:22:21.881Z,1009.30
2022-10-08T01:23:23.420Z,1009.28
2022-10-08T01:24:22.150Z,1009.30
2022-10-08T01:25:22.294Z,1009.29
2022-10-08T01:26:22.521Z,1009.31
2022-10-08T01:27:22.548Z,1009.34
2022-10-08T01:28:22.735Z,1009.35
2022-10-08T01:29:22.790Z,1009.38
2022-10-08T01:30:22.967Z,1009.39
2022-10-08T01:31:23.141Z,1009.36
2022-10-08T01:32:23.297Z,1009.28
2022-10-08T01:33:23.510Z,1009.37
2022-10-08T01:34:23.539Z,1009.36
2022-10-08T01:35:23.669Z,1009.35
2022-10-08T01:36:23.809Z,1009.29
2022-10-08T01:37:23.975Z,1009.35
2022-10-08T01:38:24.219Z,1009.29
2022-10-08T01:39:24.236Z,1009.31
2022-10-08T01:40:24.317Z,1009.28
2022-10-08T01:41:24.450Z,1009.26
2022-10-08T01:42:24.609Z,1009.24
2022-10-08T01:43:24.751Z,1009.22
2022-10-08T01:44:24.899Z,1009.26
2022-10-08T01:45:25.077Z,1009.27
2022-10-08T01:46:25.238Z,1009.30
2022-10-08T01:47:25.292Z,1009.33
2022-10-08T01:48:25.428Z,1009.26
2022-10-08T01:49:25.526Z,1009.21
2022-10-08T01:50:25.650Z,1009.27
2022-10-08T01:51:25.864Z,1009.26
2022-10-08T01:52:25.964Z,1009.27
2022-10-08T01:53:26.064Z,1009.20
2022-10-08T01:54:26.198Z,1009.33
2022-10-08T01:55:26.360Z,1009.27
2022-10-08T01:56:26.508Z,1009.24
2022-10-08T01:57:26.599Z,1009.28
2022-10-08T01:58:26.735Z,1009.31
2022-10-08T01:59:27.564Z,1009.24
2022-10-08T02:00:27.031Z,1009.24
2022-10-08T02:01:27.241Z,1009.20
2022-10-08T02:02:27.381Z,1009.29
2022-10-08T02:03:27.430Z,1009.26
2022-10-08T02:04:27.537Z,1009.24
2022-10-08T02:05:27.695Z,1009.24
2022-10-08T02:06:27.849Z,1009.26
2022-10-08T02:07:27.993Z,1009.30
2022-10-08T02:08:28.130Z,1009.37
2022-10-08T02:09:28.229Z,1009.30
2022-10-08T02:10:28.356Z,1009.41
2022-10-08T02:11:28.497Z,1009.38
2022-10-08T02:12:28.655Z,1009.36
2022-10-08T02:13:28.757Z,1009.41
2022-10-08T02:14:28.849Z,1009.42
2022-10-08T02:15:29.115Z,1009.40
2022-10-08T02:16:29.188Z,1009.40
2022-10-08T02:17:29.285Z,1009.45
2022-10-08T02:18:29.466Z,1009.48
2022-10-08T02:19:29.600Z,1009.51
2022-10-08T02:20:29.750Z,1009.50
2022-10-08T02:21:29.897Z,1009.49
2022-10-08T02:22:30.040Z,1009.53
2022-10-08T02:23:30.213Z,1009.54
2022-10-08T02:24:30.346Z,1009.48
2022-10-08T02:25:30.418Z,1009.52
2022-10-08T02:26:30.550Z,1009.52
2022-10-08T02:27:30.676Z,1009.48
2022-10-08T02:28:30.846Z,1009.56
2022-10-08T02:29:30.914Z,1009.50
2022-10-08T02:30:31.071Z,1009.55
2022-10-08T02:31:31.224Z,1009.53
2022-10-08T02:32:31.266Z,1009.57
2022-10-08T02:33:31.396Z,1009.52
2022-10-08T02:34:31.625Z,1009.50
2022-10-08T02:35:31.651Z,1009.52
2022-10-08T02:36:31.773Z,1009.55
2022-10-08T02:37:31.919Z,1009.54
2022-10-08T02:38:32.057Z,1009.49
2022-10-08T02:39:32.186Z,1009.46
2022-10-08T02:40:32.326Z,1009.50
2022-10-08T02:41:32.489Z,1009.51
2022-10-08T02:42:32.618Z,1009.49
2022-10-08T02:43:32.771Z,1009.48
2022-10-08T02:44:32.874Z,1009.47
2022-10-08T02:45:33.006Z,1009.50
2022-10-08T02:46:33.085Z,1009.47
2022-10-08T02:47:33.256Z,1009.47
2022-10-08T02:48:33.364Z,1009.48
2022-10-08T02:49:33.506Z,1009.50
2022-10-08T02:50:33.663Z,1009.49
2022-10-08T02:51:33.809Z,1009.49
2022-10-08T02:52:33.945Z,1009.44
2022-10-08T02:53:34.034Z,1009.48
2022-10-08T02:54:34.172Z,1009.51
2022-10-08T02:55:34.286Z,1009.44
2022-10-08T02:56:34.453Z,1009.46
2022-10-08T02:57:34.605Z,1009.50
2022-10-08T02:58:34.744Z,1009.45
2022-10-08T02:59:34.925Z,1009.48
2022-10-08T03:00:35.073Z,1009.51
2022-10-08T03:01:35.254Z,1009.55
2022-10-08T03:02:35.399Z,1009.57
2022-10-08T03:03:35.445Z,1009.51
2022-10-08T03:04:35.606Z,1009.55
2022-10-08T03:05:35.747Z,1009.56
2022-10-08T03:06:35.880Z,1009.55
2022-10-08T03:07:36.062Z,1009.56
2022-10-08T03:08:36.166Z,1009.55
2022-10-08T03:09:36.333Z,1009.55
2022-10-08T03:10:36.434Z,1009.56
2022-10-08T03:11:36.564Z,1009.52
2022-10-08T03:12:36.715Z,1009.51
2022-10-08T03:13:36.804Z,1009.48
2022-10-08T03:14:36.964Z,1009.56
2022-10-08T03:15:37.105Z,1009.54
2022-10-08T03:16:37.313Z,1009.59
2022-10-08T03:17:37.375Z,1009.60
2022-10-08T03:18:37.501Z,1009.57
2022-10-08T03:19:37.645Z,1009.64
2022-10-08T03:20:37.783Z,1009.59
2022-10-08T03:21:37.945Z,1009.61
2022-10-08T03:22:38.097Z,1009.60
2022-10-08T03:23:38.222Z,1009.63
2022-10-08T03:24:38.352Z,1009.60
2022-10-08T03:25:38.495Z,1009.65
2022-10-08T03:26:38.635Z,1009.59
2022-10-08T03:27:38.769Z,1009.63
2022-10-08T03:28:38.966Z,1009.57
2022-10-08T03:29:39.101Z,1009.59
2022-10-08T03:30:39.299Z,1009.66
2022-10-08T03:31:39.383Z,1009.66
2022-10-08T03:32:39.509Z,1009.74
2022-10-08T03:33:39.653Z,1009.67
2022-10-08T03:34:39.815Z,1009.70
2022-10-08T03:35:39.943Z,1009.70
2022-10-08T03:36:40.122Z,1009.72
2022-10-08T03:37:40.191Z,1009.69
2022-10-08T03:38:40.324Z,1009.69
2022-10-08T03:39:40.461Z,1009.73
2022-10-08T03:40:40.623Z,1009.75
2022-10-08T03:41:40.777Z,1009.83
2022-10-08T03:42:40.864Z,1009.84
2022-10-08T03:43:48.053Z,1009.85
2022-10-08T03:44:41.850Z,1009.82
2022-10-08T03:45:41.328Z,1009.84
2022-10-08T03:46:41.464Z,1009.93
2022-10-08T03:47:41.618Z,1009.86
2022-10-08T03:48:41.707Z,1009.84
2022-10-08T03:49:42.053Z,1009.93
2022-10-08T03:50:41.953Z,1009.94
2022-10-08T03:51:42.104Z,1009.97
2022-10-08T03:52:42.244Z,1009.92
2022-10-08T03:53:42.405Z,1009.99
2022-10-08T03:54:42.485Z,1009.96
2022-10-08T03:55:42.612Z,1010.01
2022-10-08T03:56:42.784Z,1009.88
2022-10-08T03:57:42.854Z,1009.91
2022-10-08T03:58:42.993Z,1009.90
2022-10-08T03:59:43.160Z,1009.86
2022-10-08T04:00:43.289Z,1009.90
2022-10-08T04:01:43.635Z,1009.96
2022-10-08T04:02:43.588Z,1009.96
2022-10-08T04:03:43.734Z,1009.90
2022-10-08T04:04:43.808Z,1009.94
2022-10-08T04:05:43.947Z,1009.94
2022-10-08T04:06:44.076Z,1009.82
2022-10-08T04:07:44.201Z,1009.89
2022-10-08T04:08:44.322Z,1009.86
2022-10-08T04:09:44.491Z,1009.84
2022-10-08T04:10:44.629Z,1009.82
2022-10-08T04:11:44.749Z,1009.77
2022-10-08T04:12:45.141Z,1009.78
2022-10-08T04:13:45.059Z,1009.85
2022-10-08T04:14:45.191Z,1009.85
2022-10-08T04:15:45.376Z,1009.89
2022-10-08T04:16:45.429Z,1009.88
2022-10-08T04:17:45.571Z,1009.87
2022-10-08T04:18:45.711Z,1009.91
2022-10-08T04:19:45.847Z,1009.84
2022-10-08T04:20:45.971Z,1009.87
2022-10-08T04:21:46.114Z,1009.93
2022-10-08T04:22:46.561Z,1009.90
2022-10-08T04:23:46.400Z,1009.90
2022-10-08T04:24:46.452Z,1009.91
2022-10-08T04:25:46.590Z,1009.93
2022-10-08T04:26:46.711Z,1009.90
2022-10-08T04:27:46.858Z,1009.94
2022-10-08T04:28:47.051Z,1009.93
2022-10-08T04:29:47.099Z,1009.99
2022-10-08T04:30:47.298Z,1009.96
2022-10-08T04:31:47.402Z,1009.93
2022-10-08T04:32:47.819Z,1009.90
2022-10-08T04:33:47.693Z,1009.89
2022-10-08T04:34:47.852Z,1009.92
2022-10-08T04:35:48.018Z,1009.88
2022-10-08T04:36:48.061Z,1009.91
2022-10-08T04:37:48.212Z,1009.91
2022-10-08T04:38:48.368Z,1009.96
2022-10-08T04:39:49.974Z,1009.88
2022-10-08T04:40:48.686Z,1009.96
2022-10-08T04:41:48.781Z,1009.95
2022-10-08T04:42:49.223Z,1009.96
2022-10-08T04:43:49.116Z,1010.01
2022-10-08T04:44:49.241Z,1009.96
2022-10-08T04:45:49.370Z,1009.95
2022-10-08T04:46:49.581Z,1009.96
2022-10-08T04:47:49.651Z,1009.94
2022-10-08T04:48:49.770Z,1009.97
2022-10-08T04:49:49.910Z,1009.98
2022-10-08T04:50:50.033Z,1010.00
2022-10-08T04:51:50.169Z,1010.08
2022-10-08T04:52:50.288Z,1010.03
2022-10-08T04:53:50.451Z,1010.05
2022-10-08T04:54:50.578Z,1010.02
2022-10-08T04:55:50.720Z,1010.02
2022-10-08T04:56:50.838Z,1010.10
2022-10-08T04:57:50.989Z,1010.09
2022-10-08T04:58:51.104Z,1010.16
2022-10-08T05:00:16.510Z,1010.10
2022-10-08T05:00:52.301Z,1010.12
2022-10-08T05:01:51.496Z,1010.09
2022-10-08T05:02:51.928Z,1010.17
2022-10-08T05:03:51.658Z,1010.20
2022-10-08T05:04:51.815Z,1010.24
2022-10-08T05:05:51.970Z,1010.26
2022-10-08T05:06:52.111Z,1010.22
2022-10-08T05:07:52.251Z,1010.28
2022-10-08T05:08:52.376Z,1010.22
2022-10-08T05:09:52.535Z,1010.24
2022-10-08T05:10:52.668Z,1010.22
2022-10-08T05:11:52.798Z,1010.26
2022-10-08T05:12:52.928Z,1010.27
2022-10-08T05:13:53.068Z,1010.26
2022-10-08T05:14:53.176Z,1010.25
2022-10-08T05:15:53.355Z,1010.27
2022-10-08T05:16:53.428Z,1010.30
2022-10-08T05:17:53.569Z,1010.36
2022-10-08T05:18:53.717Z,1010.32
2022-10-08T05:19:53.868Z,1010.41
2022-10-08T05:20:54.697Z,1010.42
2022-10-08T05:21:54.145Z,1010.43
2022-10-08T05:22:54.238Z,1010.47
2022-10-08T05:23:54.383Z,1010.48
2022-10-08T05:24:54.517Z,1010.49
2022-10-08T05:25:54.660Z,1010.48
2022-10-08T05:26:59.067Z,1010.51
2022-10-08T05:27:54.936Z,1010.53
2022-10-08T05:28:55.064Z,1010.53
2022-10-08T05:29:55.242Z,1010.50
2022-10-08T05:30:55.335Z,1010.60
2022-10-08T05:31:55.476Z,1010.62
2022-10-08T05:32:55.613Z,1010.58
2022-10-08T05:33:55.746Z,1010.60
2022-10-08T05:34:55.927Z,1010.60
2022-10-08T05:35:56.027Z,1010.51
2022-10-08T05:36:56.198Z,1010.53
2022-10-08T05:37:56.329Z,1010.55
2022-10-08T05:38:56.460Z,1010.54
2022-10-08T05:39:56.615Z,1010.58
2022-10-08T05:40:56.771Z,1010.62
2022-10-08T05:41:56.875Z,1010.64
2022-10-08T05:42:56.975Z,1010.63
2022-10-08T05:43:57.125Z,1010.61
2022-10-08T05:44:57.674Z,1010.69
2022-10-08T05:45:57.389Z,1010.62
2022-10-08T05:46:57.900Z,1010.72
2022-10-08T05:47:57.658Z,1010.74
2022-10-08T05:48:57.815Z,1010.67
2022-10-08T05:49:57.956Z,1010.70
2022-10-08T05:50:58.084Z,1010.69
2022-10-08T05:51:58.175Z,1010.81
2022-10-08T05:52:58.287Z,1010.76
2022-10-08T05:53:58.436Z,1010.79
2022-10-08T05:54:58.556Z,1010.82
2022-10-08T05:55:58.684Z,1010.86
2022-10-08T05:56:58.777Z,1010.90
2022-10-08T05:57:58.888Z,1010.84
2022-10-08T05:58:58.987Z,1010.90
2022-10-08T05:59:59.165Z,1010.85
2022-10-08T06:00:59.253Z,1010.86
2022-10-08T06:01:59.376Z,1010.92
2022-10-08T06:02:59.553Z,1010.97
2022-10-08T06:04:03.082Z,1011.04
2022-10-08T06:05:00.798Z,1010.97
2022-10-08T06:05:59.884Z,1011.01
2022-10-08T06:06:59.987Z,1010.99
2022-10-08T06:08:00.106Z,1011.04
2022-10-08T06:09:00.214Z,1010.97
2022-10-08T06:10:00.370Z,1011.04
2022-10-08T06:11:00.474Z,1010.98
2022-10-08T06:12:00.582Z,1010.95
2022-10-08T06:13:00.666Z,1010.94
2022-10-08T06:14:00.817Z,1011.00
2022-10-08T06:15:00.932Z,1011.04
2022-10-08T06:16:01.097Z,1011.04
2022-10-08T06:17:01.206Z,1011.15
2022-10-08T06:18:01.304Z,1011.06
2022-10-08T06:19:01.435Z,1011.08
2022-10-08T06:20:01.585Z,1011.12
2022-10-08T06:21:01.704Z,1011.15
2022-10-08T06:22:01.807Z,1011.15
2022-10-08T06:23:01.933Z,1011.18
2022-10-08T06:24:02.085Z,1011.18
2022-10-08T06:25:02.204Z,1011.24
2022-10-08T06:26:02.354Z,1011.29
2022-10-08T06:27:03.184Z,1011.27
2022-10-08T06:28:03.383Z,1011.28
2022-10-08T06:29:02.695Z,1011.34
2022-10-08T06:30:02.824Z,1011.34
2022-10-08T06:31:02.975Z,1011.44
2022-10-08T06:32:03.755Z,1011.45
2022-10-08T06:33:03.143Z,1011.45
2022-10-08T06:34:03.996Z,1011.41
2022-10-08T06:35:03.432Z,1011.34
2022-10-08T06:36:04.255Z,1011.47
2022-10-08T06:37:04.347Z,1011.46
2022-10-08T06:38:04.326Z,1011.44
2022-10-08T06:39:04.288Z,1011.47
2022-10-08T06:40:04.251Z,1011.48
2022-10-08T06:41:04.891Z,1011.49
2022-10-08T06:42:04.324Z,1011.54
2022-10-08T06:43:04.445Z,1011.57
2022-10-08T06:44:04.593Z,1011.53
2022-10-08T06:45:04.701Z,1011.56
2022-10-08T06:46:04.856Z,1011.56
2022-10-08T06:47:04.988Z,1011.63
2022-10-08T06:48:05.113Z,1011.64
2022-10-08T06:49:05.199Z,1011.65
2022-10-08T06:50:05.353Z,1011.59
2022-10-08T06:51:05.441Z,1011.60
2022-10-08T06:52:05.585Z,1011.56
2022-10-08T06:53:05.724Z,1011.64
2022-10-08T06:54:08.230Z,1011.60
2022-10-08T06:55:05.949Z,1011.69
2022-10-08T06:56:06.063Z,1011.70
2022-10-08T06:57:06.163Z,1011.67
2022-10-08T06:58:06.324Z,1011.73
2022-10-08T06:59:06.520Z,1011.69
2022-10-08T07:00:06.571Z,1011.78
2022-10-08T07:01:06.739Z,1011.76
2022-10-08T07:02:06.908Z,1011.76
2022-10-08T07:03:06.930Z,1011.73
2022-10-08T07:04:07.281Z,1011.78
2022-10-08T07:05:07.176Z,1011.83
2022-10-08T07:06:07.284Z,1011.80
2022-10-08T07:07:07.381Z,1011.83
2022-10-08T07:08:07.558Z,1011.80
2022-10-08T07:09:07.650Z,1011.81
2022-10-08T07:10:07.830Z,1011.83
2022-10-08T07:11:07.914Z,1011.77
2022-10-08T07:12:08.071Z,1011.81
2022-10-08T07:13:08.179Z,1011.84
2022-10-08T07:14:08.294Z,1011.81
2022-10-08T07:15:08.424Z,1011.94
2022-10-08T07:16:08.569Z,1011.92
2022-10-08T07:17:08.613Z,1011.92
2022-10-08T07:18:08.749Z,1011.98
2022-10-08T07:19:08.897Z,1012.06
2022-10-08T07:20:09.023Z,1012.11
2022-10-08T07:21:09.121Z,1012.08
2022-10-08T07:22:09.261Z,1012.03
2022-10-08T07:23:09.395Z,1012.12
2022-10-08T07:24:09.579Z,1012.12
2022-10-08T07:25:09.650Z,1012.18
2022-10-08T07:26:09.789Z,1012.19
2022-10-08T07:27:09.922Z,1012.17
2022-10-08T07:28:10.122Z,1012.22
2022-10-08T07:29:10.182Z,1012.19
2022-10-08T07:30:10.287Z,1012.23
2022-10-08T07:31:10.462Z,1012.21
2022-10-08T07:32:10.634Z,1012.28
2022-10-08T07:33:10.668Z,1012.25
2022-10-08T07:34:10.759Z,1012.27
2022-10-08T07:35:10.897Z,1012.33
2022-10-08T07:36:11.031Z,1012.32
2022-10-08T07:37:11.196Z,1012.27
2022-10-08T07:38:11.287Z,1012.29
2022-10-08T07:39:11.430Z,1012.26
2022-10-08T07:40:11.605Z,1012.33
2022-10-08T07:41:11.717Z,1012.33
2022-10-08T07:42:11.826Z,1012.34
2022-10-08T07:43:11.919Z,1012.39
2022-10-08T07:44:12.078Z,1012.41
2022-10-08T07:45:12.164Z,1012.36
2022-10-08T07:46:12.348Z,1012.44
2022-10-08T07:47:12.407Z,1012.44
2022-10-08T07:48:12.537Z,1012.46
2022-10-08T07:49:12.642Z,1012.38
2022-10-08T07:50:12.717Z,1012.43
2022-10-08T07:51:12.859Z,1012.43
2022-10-08T07:52:12.961Z,1012.46
2022-10-08T07:53:13.110Z,1012.46
2022-10-08T07:54:13.217Z,1012.52
2022-10-08T07:55:13.383Z,1012.53
2022-10-08T07:56:13.485Z,1012.57
2022-10-08T07:57:13.628Z,1012.49
2022-10-08T07:58:13.740Z,1012.47
2022-10-08T07:59:13.860Z,1012.49
2022-10-08T08:00:13.958Z,1012.51
2022-10-08T08:01:14.197Z,1012.64
2022-10-08T08:02:14.263Z,1012.58
2022-10-08T08:03:14.323Z,1012.59
2022-10-08T08:04:14.464Z,1012.60
2022-10-08T08:05:14.723Z,1012.66
2022-10-08T08:06:14.732Z,1012.68
2022-10-08T08:07:14.869Z,1012.66
2022-10-08T08:08:14.988Z,1012.71
2022-10-08T08:09:15.097Z,1012.68
2022-10-08T08:10:15.190Z,1012.72
2022-10-08T08:11:15.343Z,1012.74
2022-10-08T08:12:15.440Z,1012.76
2022-10-08T08:13:16.236Z,1012.75
2022-10-08T08:14:15.736Z,1012.80
2022-10-08T08:15:15.839Z,1012.78
2022-10-08T08:16:15.994Z,1012.78
2022-10-08T08:17:16.059Z,1012.81
2022-10-08T08:18:16.219Z,1012.82
2022-10-08T08:19:16.310Z,1012.88
2022-10-08T08:20:17.190Z,1012.93
2022-10-08T08:21:16.578Z,1012.89
2022-10-08T08:22:16.687Z,1012.87
2022-10-08T08:23:16.799Z,1012.89
2022-10-08T08:24:16.968Z,1012.88
2022-10-08T08:25:17.084Z,1012.89
2022-10-08T08:26:17.160Z,1012.93
2022-10-08T08:27:17.321Z,1012.96
2022-10-08T08:28:17.495Z,1013.02
2022-10-08T08:29:17.536Z,1012.98
2022-10-08T08:30:17.717Z,1012.95
2022-10-08T08:31:17.899Z,1012.96
2022-10-08T08:32:17.916Z,1012.96
2022-10-08T08:33:18.068Z,1013.04
2022-10-08T08:34:18.169Z,1013.01
2022-10-08T08:35:18.331Z,1013.15
2022-10-08T08:36:18.419Z,1013.06
2022-10-08T08:37:18.578Z,1013.06
2022-10-08T08:38:18.661Z,1013.13
2022-10-08T08:39:18.857Z,1013.08
2022-10-08T08:40:18.937Z,1013.15
2022-10-08T08:41:20.647Z,1013.18
2022-10-08T08:42:19.198Z,1013.20
2022-10-08T08:43:19.305Z,1013.23
2022-10-08T08:44:19.407Z,1013.17
2022-10-08T08:45:41.865Z,1013.16
2022-10-08T08:46:20.750Z,1013.22
2022-10-08T08:47:19.786Z,1013.15
2022-10-08T08:48:19.931Z,1013.16
2022-10-08T08:49:20.075Z,1013.21
2022-10-08T08:50:20.239Z,1013.18
2022-10-08T08:51:20.366Z,1013.16
2022-10-08T08:52:20.467Z,1013.12
2022-10-08T08:53:20.587Z,1013.18
2022-10-08T08:54:20.678Z,1013.14
2022-10-08T08:55:20.833Z,1013.23
2022-10-08T08:56:20.935Z,1013.13
2022-10-08T08:57:21.088Z,1013.21
2022-10-08T08:58:21.186Z,1013.13
2022-10-08T08:59:21.338Z,1013.14
2022-10-08T09:00:21.467Z,1013.18
2022-10-08T09:01:21.684Z,1013.16
2022-10-08T09:02:21.711Z,1013.13
2022-10-08T09:03:22.813Z,1013.18
2022-10-08T09:04:21.999Z,1013.20
2022-10-08T09:05:22.162Z,1013.19
2022-10-08T09:06:22.228Z,1013.18
2022-10-08T09:07:22.567Z,1013.19
2022-10-08T09:08:22.467Z,1013.26
2022-10-08T09:09:22.595Z,1013.19
2022-10-08T09:10:22.768Z,1013.22
2022-10-08T09:11:22.858Z,1013.29
2022-10-08T09:12:22.935Z,1013.22
2022-10-08T09:13:23.075Z,1013.24
2022-10-08T09:14:23.217Z,1013.23
2022-10-08T09:15:23.403Z,1013.18
2022-10-08T09:16:23.511Z,1013.23
2022-10-08T09:17:23.597Z,1013.23
2022-10-08T09:18:23.750Z,1013.23
2022-10-08T09:19:23.897Z,1013.32
2022-10-08T09:20:24.020Z,1013.37
2022-10-08T09:21:24.156Z,1013.31
2022-10-08T09:22:24.233Z,1013.39
2022-10-08T09:23:24.377Z,1013.40
2022-10-08T09:24:24.477Z,1013.38
2022-10-08T09:25:24.616Z,1013.42
2022-10-08T09:26:24.770Z,1013.46
2022-10-08T09:27:24.890Z,1013.43
2022-10-08T09:28:25.043Z,1013.38
2022-10-08T09:29:25.149Z,1013.38
2022-10-08T09:30:25.298Z,1013.39
2022-10-08T09:31:25.512Z,1013.47
2022-10-08T09:32:25.478Z,1013.44
2022-10-08T09:33:25.637Z,1013.45
2022-10-08T09:34:25.739Z,1013.47
2022-10-08T09:35:25.902Z,1013.47
2022-10-08T09:36:26.043Z,1013.38
2022-10-08T09:37:26.148Z,1013.49
2022-10-08T09:38:26.262Z,1013.44
2022-10-08T09:39:26.366Z,1013.47
2022-10-08T09:40:26.459Z,1013.51
2022-10-08T09:41:26.607Z,1013.45
2022-10-08T09:42:26.708Z,1013.41
2022-10-08T09:43:26.871Z,1013.46
2022-10-08T09:44:26.957Z,1013.52
2022-10-08T09:45:27.106Z,1013.56
2022-10-08T09:46:27.283Z,1013.55
2022-10-08T09:47:35.032Z,1013.49
2022-10-08T09:48:27.528Z,1013.54
2022-10-08T09:49:27.678Z,1013.52
2022-10-08T09:50:27.854Z,1013.46
2022-10-08T09:51:27.878Z,1013.51
2022-10-08T09:52:28.007Z,1013.51
2022-10-08T09:53:28.190Z,1013.60
2022-10-08T09:54:28.268Z,1013.44
2022-10-08T09:55:28.410Z,1013.51
2022-10-08T09:56:28.530Z,1013.51
2022-10-08T09:57:28.677Z,1013.59
2022-10-08T09:58:28.787Z,1013.56
2022-10-08T09:59:28.905Z,1013.57
2022-10-08T10:00:29.021Z,1013.65
2022-10-08T10:01:29.179Z,1013.67
2022-10-08T10:02:29.242Z,1013.69
2022-10-08T10:03:29.436Z,1013.69
2022-10-08T10:04:29.530Z,1013.74
2022-10-08T10:05:29.633Z,1013.78
2022-10-08T10:06:29.729Z,1013.77
2022-10-08T10:07:30.595Z,1013.69
2022-10-08T10:08:29.998Z,1013.80
2022-10-08T10:09:30.109Z,1013.77
2022-10-08T10:10:30.218Z,1013.75
2022-10-08T10:11:30.365Z,1013.78
2022-10-08T10:12:30.456Z,1013.74
2022-10-08T10:13:30.621Z,1013.80
2022-10-08T10:14:30.739Z,1013.75
2022-10-08T10:15:30.851Z,1013.86
2022-10-08T10:16:30.993Z,1013.85
2022-10-08T10:17:31.085Z,1013.89
2022-10-08T10:18:31.190Z,1013.85
2022-10-08T10:19:31.340Z,1013.80
2022-10-08T10:20:31.480Z,1013.75
2022-10-08T10:21:31.586Z,1013.82
2022-10-08T10:22:31.719Z,1013.89
2022-10-08T10:23:31.880Z,1013.85
2022-10-08T10:24:31.999Z,1013.93
2022-10-08T10:25:32.118Z,1013.90
2022-10-08T10:26:32.231Z,1013.81
2022-10-08T10:27:32.368Z,1013.89
2022-10-08T10:28:32.565Z,1013.84
2022-10-08T10:29:32.650Z,1013.86
2022-10-08T10:30:32.802Z,1013.79
2022-10-08T10:31:32.899Z,1013.81
2022-10-08T10:32:32.996Z,1013.67
2022-10-08T10:33:33.140Z,1013.73
2022-10-08T10:34:33.263Z,1013.72
2022-10-08T10:35:33.388Z,1013.73
2022-10-08T10:36:33.466Z,1013.74
2022-10-08T10:37:33.610Z,1013.68
2022-10-08T10:38:33.748Z,1013.76
2022-10-08T10:39:33.900Z,1013.76
2022-10-08T10:40:34.012Z,1013.68
2022-10-08T10:41:34.160Z,1013.62
2022-10-08T10:42:34.256Z,1013.71
2022-10-08T10:43:34.445Z,1013.82
2022-10-08T10:44:34.552Z,1013.84
2022-10-08T10:45:34.690Z,1013.76
2022-10-08T10:46:34.889Z,1013.71
2022-10-08T10:47:34.909Z,1013.69
2022-10-08T10:48:35.009Z,1013.75
2022-10-08T10:49:35.169Z,1013.79
2022-10-08T10:50:35.300Z,1013.76
2022-10-08T10:51:35.388Z,1013.81
2022-10-08T10:52:35.570Z,1013.77
2022-10-08T10:53:35.670Z,1013.80
2022-10-08T10:54:35.760Z,1013.66
2022-10-08T10:55:35.900Z,1013.74
2022-10-08T10:56:36.049Z,1013.69
2022-10-08T10:57:36.210Z,1013.86
2022-10-08T10:58:36.301Z,1013.79
2022-10-08T10:59:36.441Z,1013.88
2022-10-08T11:00:36.591Z,1013.80
2022-10-08T11:01:36.791Z,1013.98
2022-10-08T11:02:36.882Z,1013.85
2022-10-08T11:03:36.989Z,1013.78
2022-10-08T11:04:37.103Z,1013.84
2022-10-08T11:05:37.243Z,1013.84
2022-10-08T11:06:37.389Z,1013.85
2022-10-08T11:07:37.541Z,1013.80
2022-10-08T11:08:37.643Z,1013.74
2022-10-08T11:09:37.803Z,1013.79
2022-10-08T11:10:37.901Z,1013.96
2022-10-08T11:11:38.094Z,1013.80
2022-10-08T11:12:38.191Z,1013.84
2022-10-08T11:13:38.343Z,1013.79
2022-10-08T11:14:38.426Z,1013.85
2022-10-08T11:15:38.611Z,1013.87
2022-10-08T11:16:38.774Z,1013.84
2022-10-08T11:17:38.830Z,1013.82
2022-10-08T11:18:38.983Z,1013.91
2022-10-08T11:19:39.104Z,1013.85
2022-10-08T11:20:39.203Z,1013.81
2022-10-08T11:21:39.350Z,1013.86
2022-10-08T11:22:39.444Z,1013.83
2022-10-08T11:23:39.660Z,1013.88
2022-10-08T11:24:39.703Z,1013.69
2022-10-08T11:26:02.110Z,1013.82
2022-10-08T11:26:40.931Z,1013.88
2022-10-08T11:27:40.072Z,1013.86
2022-10-08T11:28:40.251Z,1013.73
2022-10-08T11:29:40.303Z,1013.72
2022-10-08T11:30:40.487Z,1013.80
2022-10-08T11:31:40.585Z,1013.73
2022-10-08T11:32:40.685Z,1013.75
2022-10-08T11:33:40.843Z,1013.78
2022-10-08T11:34:40.947Z,1013.82
2022-10-08T11:35:41.135Z,1013.73
2022-10-08T11:36:42.206Z,1013.82
2022-10-08T11:37:41.364Z,1013.80
2022-10-08T11:38:41.446Z,1013.77
2022-10-08T11:39:41.757Z,1013.85
2022-10-08T11:40:41.869Z,1013.79
2022-10-08T11:41:41.852Z,1013.88
2022-10-08T11:42:47.478Z,1013.72
2022-10-08T11:43:43.139Z,1013.91
2022-10-08T11:44:42.208Z,1013.67
2022-10-08T11:45:42.365Z,1013.72
2022-10-08T11:46:42.556Z,1013.70
2022-10-08T11:47:42.584Z,1013.78
2022-10-08T11:48:42.738Z,1013.74
2022-10-08T11:49:42.847Z,1013.84
2022-10-08T11:50:43.006Z,1013.72
2022-10-08T11:51:43.094Z,1013.76
2022-10-08T11:52:43.251Z,1013.82
2022-10-08T11:53:43.359Z,1013.77
2022-10-08T11:54:43.506Z,1013.75
2022-10-08T11:55:43.626Z,1013.80
2022-10-08T11:56:43.761Z,1013.79
2022-10-08T11:58:06.752Z,1013.78
2022-10-08T11:58:45.067Z,1013.83
2022-10-08T11:59:44.078Z,1013.76
2022-10-08T12:00:44.252Z,1013.73
2022-10-08T12:01:44.348Z,1013.82
2022-10-08T12:02:44.645Z,1013.68
2022-10-08T12:03:44.689Z,1013.82
2022-10-08T12:04:44.787Z,1013.71
2022-10-08T12:05:50.044Z,1013.78
2022-10-08T12:06:46.007Z,1013.71